Terminal Aerodrome Forecast
Issued by NWS

Home | Current Version | Previous Version | Text Only | Print | Product List | Glossary On
Versions: 1 2 3 4 5 6 7 8 9 10 11 12 13 14 15 16 17
216
FTUS45 KABQ 292340
TAFTCC
TAF
KTCC 292340Z 3000/3024 11013KT P6SM VCTS SCT060CB BKN120
      TEMPO 3000/3002 VRB25G40KT TSRA OVC040CB
     FM300200 18011KT P6SM VCSH SCT060 BKN120
     FM300400 12010KT P6SM SCT110
     FM301000 14007KT P6SM BKN020
     FM301500 21010KT P6SM SKC
     FM301800 23015G25KT P6SM FEW060 SCT120=

USA.gov is the U.S. government's official web portal to all federal, state and local government web resources and services.